Terminal Aerodrome Forecast
Issued by NWS

Home | Current Version | Previous Version | Graphics & Text | Print | Product List | Glossary On
Versions: 1 2 3 4 5 6 7 8 9 10 11 12 13 14 15 16 17
000
FTUS43 KGRB 141120
TAFCWA
TAF
KCWA 141120Z 1412/1512 27005KT P6SM SCT007
      TEMPO 1412/1415 BKN007
     FM141500 27003KT P6SM SKC
     FM150700 VRB03KT 5SM BR SKC=

USA.gov is the U.S. government's official web portal to all federal, state and local government web resources and services.